Time;durP1;ratioP1;P1;durP2;ratioP2;P2;SDS_P1;SDS_P2;PMS_P1;PMS_P2;Temp;Humidity;BMP_temperature;BMP_pressure;BME280_temperature;BME280_humidity;BME280_pressure;Samples;Min_cycle;Max_cycle;Signal;HPM_P1;HPM_P2
2023/07/02 00:01:48;;;;;;;4.03;0.85;;;18.80;99.90;;;;;;5020623;28;20072;-66
2023/07/02 00:04:16;;;;;;;7.28;1.35;;;18.70;99.90;;;;;;5030138;28;20037;-65
2023/07/02 00:06:48;;;;;;;1.83;0.80;;;18.70;99.90;;;;;;5004722;28;20029;-65
2023/07/02 00:09:15;;;;;;;5.10;1.10;;;18.70;99.90;;;;;;5029831;28;20030;-65
2023/07/02 00:11:45;;;;;;;3.10;0.77;;;18.60;99.90;;;;;;5030150;28;20072;-65
2023/07/02 00:14:12;;;;;;;2.17;0.80;;;18.70;99.90;;;;;;5031458;28;20504;-65
2023/07/02 00:16:46;;;;;;;2.03;1.20;;;18.70;99.90;;;;;;5024665;28;20283;-65
2023/07/02 00:19:15;;;;;;;1.08;0.68;;;18.70;99.90;;;;;;5013369;28;20034;-65
2023/07/02 00:21:42;;;;;;;1.58;0.73;;;18.70;99.90;;;;;;5007875;28;20025;-66
2023/07/02 00:24:12;;;;;;;1.40;0.63;;;18.70;99.90;;;;;;5033864;28;20032;-66
2023/07/02 00:26:40;;;;;;;1.58;0.82;;;18.70;99.90;;;;;;5024929;28;20025;-65
2023/07/02 00:29:06;;;;;;;1.48;1.00;;;18.70;99.90;;;;;;5015995;28;20583;-65
2023/07/02 00:31:33;;;;;;;1.40;0.63;;;18.60;99.90;;;;;;5033832;28;20021;-66
2023/07/02 00:34:00;;;;;;;1.88;1.08;;;18.60;99.90;;;;;;4999891;28;20041;-65
2023/07/02 00:36:27;;;;;;;3.40;1.08;;;18.70;99.90;;;;;;5033805;28;20025;-65
2023/07/02 00:38:52;;;;;;;3.50;1.02;;;18.60;99.90;;;;;;5015700;28;20040;-65
2023/07/02 00:41:18;;;;;;;4.38;1.38;;;18.40;99.90;;;;;;5033360;28;20033;-65
2023/07/02 00:43:44;;;;;;;1.02;0.80;;;18.40;99.90;;;;;;5015738;28;20057;-65
2023/07/02 00:46:19;;;;;;;10.38;1.38;;;18.30;99.90;;;;;;5033568;28;20113;-65
2023/07/02 00:48:51;;;;;;;5.22;1.15;;;18.10;99.90;;;;;;5015716;28;20029;-65
2023/07/02 00:51:23;;;;;;;2.33;0.98;;;18.20;99.90;;;;;;5033423;28;20025;-65
2023/07/02 00:53:52;;;;;;;3.03;1.10;;;18.00;99.90;;;;;;5033246;28;20111;-65
2023/07/02 00:56:18;;;;;;;1.85;0.80;;;18.00;99.90;;;;;;5033484;28;20033;-65
2023/07/02 00:58:48;;;;;;;1.42;0.77;;;18.00;99.90;;;;;;5032977;28;20061;-65
2023/07/02 01:01:18;;;;;;;3.28;0.70;;;18.00;99.90;;;;;;5013195;28;20485;-65
2023/07/02 01:04:12;;;;;;;2.08;0.88;;;17.80;99.90;;;;;;5032737;28;20163;-65
2023/07/02 01:06:41;;;;;;;2.53;0.85;;;17.80;99.90;;;;;;5024702;28;20035;-66
2023/07/02 01:09:07;;;;;;;8.95;1.13;;;17.70;99.90;;;;;;5023708;28;20071;-66
2023/07/02 01:11:50;;;;;;;1.65;1.00;;;17.60;99.90;;;;;;5004433;28;20511;-65
2023/07/02 01:14:25;;;;;;;2.20;0.85;;;17.60;99.90;;;;;;5015717;28;20036;-65
2023/07/02 01:16:54;;;;;;;1.13;0.65;;;17.60;99.90;;;;;;5027408;28;20060;-65
2023/07/02 01:19:53;;;;;;;1.67;0.75;;;17.70;99.90;;;;;;4995478;28;20033;-66
2023/07/02 01:22:25;;;;;;;1.80;0.90;;;17.60;99.90;;;;;;5027014;28;20029;-65
2023/07/02 01:24:52;;;;;;;2.05;0.80;;;17.60;99.90;;;;;;5031857;28;20379;-64
2023/07/02 01:27:19;;;;;;;3.00;1.20;;;17.60;99.90;;;;;;5023424;28;20032;-64
2023/07/02 01:29:46;;;;;;;1.55;0.90;;;17.60;99.90;;;;;;5014463;28;20030;-64
2023/07/02 01:32:15;;;;;;;1.65;0.95;;;17.60;99.90;;;;;;5032945;28;20367;-64
2023/07/02 01:34:41;;;;;;;5.65;1.55;;;17.60;99.90;;;;;;5014924;28;20084;-63
2023/07/02 01:37:09;;;;;;;3.88;1.00;;;17.60;99.90;;;;;;5023170;28;20551;-64
2023/07/02 01:39:35;;;;;;;3.22;1.33;;;17.60;99.90;;;;;;5032225;28;20037;-64
2023/07/02 01:42:27;;;;;;;3.97;1.08;;;17.70;99.90;;;;;;5002117;28;20041;-64
2023/07/02 01:44:52;;;;;;;1.83;0.98;;;17.80;99.90;;;;;;5012556;28;20168;-64
2023/07/02 01:47:19;;;;;;;1.27;0.88;;;17.60;99.90;;;;;;5022841;28;20473;-64
2023/07/02 01:49:45;;;;;;;1.95;1.02;;;17.60;99.90;;;;;;5031689;28;20030;-64
2023/07/02 01:52:11;;;;;;;1.90;0.90;;;17.60;99.90;;;;;;5032347;28;20026;-64
2023/07/02 01:54:36;;;;;;;1.65;1.05;;;17.60;99.90;;;;;;5032418;28;20061;-64
2023/07/02 01:57:03;;;;;;;3.08;1.00;;;17.60;99.90;;;;;;5032329;28;20123;-64
2023/07/02 01:59:29;;;;;;;2.90;1.52;;;17.50;99.90;;;;;;5031545;28;20033;-64
2023/07/02 02:01:55;;;;;;;2.40;1.10;;;17.50;99.90;;;;;;5022995;28;20044;-64
2023/07/02 02:04:21;;;;;;;1.23;0.90;;;17.40;99.90;;;;;;5031531;28;20035;-64
2023/07/02 02:06:46;;;;;;;2.80;1.00;;;17.40;99.90;;;;;;5022398;28;20056;-64
2023/07/02 02:09:12;;;;;;;1.90;0.82;;;17.40;99.90;;;;;;5031470;28;20052;-64
2023/07/02 02:11:41;;;;;;;2.00;0.88;;;17.50;99.90;;;;;;5031925;28;20029;-64
2023/07/02 02:14:07;;;;;;;2.80;1.35;;;17.60;99.90;;;;;;5031425;28;20051;-65
2023/07/02 02:16:35;;;;;;;2.05;0.90;;;17.60;99.90;;;;;;5011088;28;20551;-65
2023/07/02 02:19:02;;;;;;;4.15;1.23;;;17.60;99.90;;;;;;4994868;28;20030;-64
2023/07/02 02:21:28;;;;;;;1.58;0.93;;;17.70;99.90;;;;;;5029816;28;20042;-65
2023/07/02 02:23:53;;;;;;;2.35;1.10;;;17.80;99.90;;;;;;5031181;28;20044;-65
2023/07/02 02:26:21;;;;;;;5.28;1.23;;;17.80;99.90;;;;;;5031807;28;20028;-64
2023/07/02 02:28:48;;;;;;;2.70;1.23;;;17.80;99.90;;;;;;5031241;28;20504;-64
2023/07/02 02:31:15;;;;;;;3.13;1.13;;;17.80;99.90;;;;;;5031326;28;20026;-64
2023/07/02 02:33:40;;;;;;;4.93;1.30;;;17.70;99.90;;;;;;5042040;28;20048;-65
2023/07/02 02:36:06;;;;;;;6.60;1.23;;;17.70;99.90;;;;;;5031321;28;20474;-65
2023/07/02 02:38:33;;;;;;;4.20;1.48;;;17.70;99.90;;;;;;5012995;28;20477;-65
2023/07/02 02:41:00;;;;;;;2.53;1.33;;;17.70;99.90;;;;;;5005694;28;20065;-64
2023/07/02 02:43:26;;;;;;;3.95;2.03;;;17.60;99.90;;;;;;5030682;28;20367;-64
2023/07/02 02:45:51;;;;;;;5.32;1.60;;;17.60;99.90;;;;;;5013703;28;20036;-64
2023/07/02 02:48:17;;;;;;;4.35;2.00;;;17.60;99.90;;;;;;5031284;28;20025;-64
2023/07/02 02:50:43;;;;;;;6.38;2.05;;;17.60;99.90;;;;;;4992427;28;20048;-64
2023/07/02 02:53:10;;;;;;;5.20;1.50;;;17.50;99.90;;;;;;5031300;28;20030;-63
2023/07/02 02:55:36;;;;;;;4.88;1.90;;;17.50;99.90;;;;;;5030743;28;20029;-64
2023/07/02 02:58:02;;;;;;;5.78;1.83;;;17.40;99.90;;;;;;5031307;28;20033;-64
2023/07/02 03:00:28;;;;;;;6.53;2.22;;;17.40;99.90;;;;;;5030218;28;20513;-64
2023/07/02 03:02:55;;;;;;;5.50;1.80;;;17.30;99.90;;;;;;5013501;28;20029;-64
2023/07/02 03:05:22;;;;;;;4.43;2.13;;;17.30;99.90;;;;;;5007533;28;20037;-64
2023/07/02 03:07:50;;;;;;;3.50;1.70;;;17.20;99.90;;;;;;5031130;28;20025;-65
2023/07/02 03:10:15;;;;;;;5.40;1.80;;;17.20;99.90;;;;;;5030094;28;20033;-65
2023/07/02 03:12:41;;;;;;;3.58;1.67;;;17.20;99.90;;;;;;5013412;28;20025;-65
2023/07/02 03:15:08;;;;;;;3.90;1.73;;;17.20;99.90;;;;;;5030336;28;20045;-65
2023/07/02 03:17:33;;;;;;;3.60;1.67;;;17.20;99.90;;;;;;5022835;28;20037;-65
2023/07/02 03:19:59;;;;;;;3.75;1.63;;;17.20;99.90;;;;;;5030090;28;20045;-65
2023/07/02 03:22:25;;;;;;;5.65;2.13;;;17.20;99.90;;;;;;5030506;28;20419;-65
2023/07/02 03:24:50;;;;;;;4.07;1.50;;;17.20;99.90;;;;;;5030332;28;20030;-65
2023/07/02 03:27:16;;;;;;;4.85;2.10;;;17.10;99.90;;;;;;5030491;28;20033;-65
2023/07/02 03:29:42;;;;;;;4.80;2.17;;;17.20;99.90;;;;;;5029727;28;20405;-65
2023/07/02 03:32:08;;;;;;;5.00;1.77;;;17.10;99.90;;;;;;5021434;28;20087;-65
2023/07/02 03:34:34;;;;;;;5.43;1.83;;;17.10;99.90;;;;;;5030103;28;20037;-65
2023/07/02 03:36:59;;;;;;;10.60;2.85;;;17.10;99.90;;;;;;5030790;28;20595;-64
2023/07/02 03:39:25;;;;;;;9.07;2.50;;;17.10;99.90;;;;;;5030018;28;20040;-65
2023/07/02 03:41:51;;;;;;;4.93;2.22;;;17.20;99.90;;;;;;5030322;28;20033;-65
2023/07/02 03:44:16;;;;;;;3.60;1.77;;;17.10;99.90;;;;;;5030013;28;20053;-65
2023/07/02 03:46:43;;;;;;;7.97;2.90;;;17.10;99.90;;;;;;5004480;28;20037;-65
2023/07/02 03:49:09;;;;;;;8.73;2.10;;;17.10;99.90;;;;;;5012222;28;20105;-64
2023/07/02 03:51:34;;;;;;;6.22;2.10;;;17.10;99.90;;;;;;5034555;28;20125;-64
2023/07/02 03:54:00;;;;;;;10.82;2.30;;;17.10;99.90;;;;;;5034077;28;20021;-64
2023/07/02 03:56:26;;;;;;;4.95;2.15;;;17.10;99.90;;;;;;5034563;28;20064;-65
2023/07/02 03:58:52;;;;;;;6.65;2.35;;;17.10;99.90;;;;;;5033631;28;20033;-65
2023/07/02 04:01:18;;;;;;;4.55;1.77;;;17.10;99.90;;;;;;5032919;28;20473;-65
2023/07/02 04:03:52;;;;;;;5.65;1.85;;;17.10;99.90;;;;;;5033792;28;20040;-64
2023/07/02 04:06:18;;;;;;;9.32;2.72;;;17.20;99.90;;;;;;5034363;28;20033;-64
2023/07/02 04:08:45;;;;;;;4.18;1.95;;;17.10;99.90;;;;;;5033741;28;20041;-64
2023/07/02 04:11:11;;;;;;;8.13;2.33;;;17.10;99.90;;;;;;5032763;28;20079;-64
2023/07/02 04:13:39;;;;;;;6.22;2.92;;;17.10;99.90;;;;;;5016095;28;20029;-64
2023/07/02 04:16:05;;;;;;;4.40;2.10;;;17.10;99.90;;;;;;5033117;28;20509;-64
2023/07/02 04:18:31;;;;;;;6.35;2.13;;;17.10;99.90;;;;;;5015970;28;20067;-64
2023/07/02 04:20:58;;;;;;;8.68;2.47;;;17.10;99.90;;;;;;5032598;28;20052;-64
2023/07/02 04:23:25;;;;;;;5.13;1.92;;;17.10;99.90;;;;;;5016290;28;20033;-64
2023/07/02 04:25:51;;;;;;;6.22;1.75;;;17.10;99.90;;;;;;5010641;28;20489;-64
2023/07/02 04:28:17;;;;;;;4.53;2.03;;;17.20;99.90;;;;;;5000029;28;20041;-64
2023/07/02 04:30:43;;;;;;;3.67;2.08;;;17.10;99.90;;;;;;5033029;28;20057;-65
2023/07/02 04:33:09;;;;;;;4.28;1.63;;;17.20;99.90;;;;;;5033786;28;20037;-65
2023/07/02 04:35:34;;;;;;;6.80;2.05;;;17.20;99.90;;;;;;5033284;28;20121;-66
2023/07/02 04:38:03;;;;;;;8.30;2.03;;;17.20;99.90;;;;;;5033937;28;20355;-65
2023/07/02 04:40:29;;;;;;;5.25;2.13;;;17.20;99.90;;;;;;5015134;28;20079;-65
2023/07/02 04:42:58;;;;;;;4.13;1.90;;;17.20;99.90;;;;;;5033985;28;20026;-65
2023/07/02 04:45:25;;;;;;;4.38;1.65;;;17.30;99.90;;;;;;5032959;28;20037;-65
2023/07/02 04:47:51;;;;;;;4.18;1.98;;;17.30;99.90;;;;;;5033935;28;20033;-64
2023/07/02 04:50:18;;;;;;;4.20;2.10;;;17.30;99.90;;;;;;5032417;28;20500;-64
2023/07/02 04:52:44;;;;;;;11.77;2.65;;;17.20;99.90;;;;;;5033578;28;20104;-64
2023/07/02 04:55:10;;;;;;;5.70;2.35;;;17.30;99.90;;;;;;5015340;28;20030;-66
2023/07/02 04:57:36;;;;;;;3.72;1.83;;;17.30;99.90;;;;;;5033565;28;20083;-65
2023/07/02 05:00:04;;;;;;;6.97;1.83;;;17.40;99.90;;;;;;5031862;28;20025;-65
2023/07/02 05:02:30;;;;;;;5.68;2.67;;;17.40;99.90;;;;;;5024048;28;20025;-65
2023/07/02 05:04:55;;;;;;;6.15;2.22;;;17.30;99.90;;;;;;4999130;28;20037;-67
2023/07/02 05:07:21;;;;;;;10.10;3.28;;;17.30;99.90;;;;;;5028894;28;20034;-64
2023/07/02 05:09:48;;;;;;;13.88;3.08;;;17.40;99.90;;;;;;5031761;28;20025;-64
2023/07/02 05:12:14;;;;;;;9.82;2.20;;;17.40;99.90;;;;;;5034123;28;20025;-65
2023/07/02 05:14:40;;;;;;;5.75;3.08;;;17.50;99.90;;;;;;5008919;28;20505;-65
2023/07/02 05:17:05;;;;;;;6.32;2.33;;;17.50;99.90;;;;;;5014094;28;20071;-64
2023/07/02 05:19:31;;;;;;;9.85;2.50;;;17.50;99.90;;;;;;5031973;28;20103;-65
2023/07/02 05:21:57;;;;;;;6.18;2.85;;;17.40;99.90;;;;;;5023429;28;20045;-64
2023/07/02 05:24:22;;;;;;;4.80;2.88;;;17.40;99.90;;;;;;5032106;28;20045;-65
2023/07/02 05:26:50;;;;;;;6.55;3.35;;;17.50;99.90;;;;;;5032892;28;20041;-64
2023/07/02 05:29:16;;;;;;;5.55;2.47;;;17.50;99.90;;;;;;5032256;28;20018;-65
2023/07/02 05:31:42;;;;;;;8.48;2.55;;;17.50;99.90;;;;;;5032533;28;20041;-65
2023/07/02 05:34:08;;;;;;;5.15;2.47;;;17.50;99.90;;;;;;5014607;28;20029;-65
2023/07/02 05:36:34;;;;;;;7.63;2.92;;;17.60;99.90;;;;;;5032345;28;20037;-65
2023/07/02 05:39:00;;;;;;;7.20;3.78;;;17.60;99.90;;;;;;5014525;28;20473;-65
2023/07/02 05:41:30;;;;;;;5.75;2.10;;;17.60;99.90;;;;;;5031987;28;20036;-63
2023/07/02 05:43:57;;;;;;;5.32;2.72;;;17.60;99.90;;;;;;5011127;28;20037;-64
2023/07/02 05:46:23;;;;;;;12.40;3.30;;;17.60;99.90;;;;;;5031183;28;20488;-64
2023/07/02 05:48:49;;;;;;;8.15;3.17;;;17.50;99.90;;;;;;5039156;28;20397;-64
2023/07/02 05:51:23;;;;;;;11.98;3.17;;;17.50;99.90;;;;;;5032088;28;20025;-65
2023/07/02 05:53:50;;;;;;;6.93;2.33;;;17.40;99.90;;;;;;5010981;28;20026;-66
2023/07/02 05:56:17;;;;;;;9.38;2.92;;;17.40;99.90;;;;;;5030020;28;20033;-67
2023/07/02 05:58:42;;;;;;;4.72;2.30;;;17.40;99.90;;;;;;4997435;28;20187;-68
2023/07/02 06:01:08;;;;;;;13.15;2.80;;;17.50;99.90;;;;;;5028337;28;20541;-66
2023/07/02 06:03:34;;;;;;;5.03;2.33;;;17.40;99.90;;;;;;5014095;28;20052;-68
2023/07/02 06:06:00;;;;;;;9.85;3.17;;;17.40;99.90;;;;;;5032187;28;20041;-66
2023/07/02 06:08:25;;;;;;;17.75;3.30;;;17.40;99.90;;;;;;5013877;28;20033;-68
2023/07/02 06:10:51;;;;;;;6.40;2.55;;;17.40;99.90;;;;;;5031201;28;20076;-66
2023/07/02 06:13:17;;;;;;;8.00;3.10;;;17.50;99.90;;;;;;5031232;28;20029;-67
2023/07/02 06:15:44;;;;;;;7.75;2.50;;;17.50;99.90;;;;;;5031889;28;20049;-66
2023/07/02 06:18:09;;;;;;;10.45;3.40;;;17.60;99.90;;;;;;5031997;28;20049;-67
2023/07/02 06:20:35;;;;;;;9.60;3.47;;;17.60;99.90;;;;;;5031022;28;20056;-66
2023/07/02 06:23:01;;;;;;;10.77;3.25;;;17.70;99.90;;;;;;5031956;28;20039;-66
2023/07/02 06:25:27;;;;;;;9.02;3.28;;;17.80;99.90;;;;;;5030916;28;20477;-66
2023/07/02 06:27:54;;;;;;;8.98;2.88;;;17.90;99.90;;;;;;5013998;28;20040;-67
2023/07/02 06:30:22;;;;;;;10.88;3.70;;;17.90;99.90;;;;;;5013665;28;20018;-67
2023/07/02 06:32:48;;;;;;;8.82;3.50;;;18.10;99.90;;;;;;5013830;28;20505;-66
2023/07/02 06:35:13;;;;;;;6.80;2.97;;;18.10;99.90;;;;;;5013443;28;20056;-65
2023/07/02 06:37:39;;;;;;;10.00;2.58;;;18.20;99.90;;;;;;5031476;28;20038;-64
2023/07/02 06:40:06;;;;;;;6.82;2.47;;;18.20;99.90;;;;;;5029568;28;20033;-65
2023/07/02 06:42:32;;;;;;;9.75;3.65;;;18.30;99.90;;;;;;5013748;28;20065;-65
2023/07/02 06:44:59;;;;;;;10.43;4.13;;;18.30;99.90;;;;;;5031050;28;20033;-64
2023/07/02 06:47:24;;;;;;;8.98;3.17;;;18.40;99.90;;;;;;5005306;28;20546;-65
2023/07/02 06:49:52;;;;;;;11.70;3.92;;;18.50;99.90;;;;;;5030671;28;20029;-64
2023/07/02 06:52:18;;;;;;;13.40;4.32;;;18.50;99.90;;;;;;5021890;28;20029;-65
2023/07/02 06:54:44;;;;;;;6.65;2.97;;;18.40;99.90;;;;;;5013024;28;20036;-66
2023/07/02 06:57:10;;;;;;;8.60;3.40;;;18.40;99.90;;;;;;5013820;28;20037;-65
2023/07/02 06:59:35;;;;;;;8.00;3.35;;;18.50;99.90;;;;;;5012701;28;20036;-66
2023/07/02 07:02:02;;;;;;;10.32;4.03;;;18.60;99.90;;;;;;5031379;28;20051;-66
2023/07/02 07:04:28;;;;;;;14.20;3.83;;;18.60;99.90;;;;;;5030289;28;20033;-65
2023/07/02 07:06:55;;;;;;;15.20;3.67;;;18.50;99.90;;;;;;5030986;28;20052;-65
2023/07/02 07:09:21;;;;;;;9.95;3.88;;;18.60;99.90;;;;;;5006724;28;20030;-65
2023/07/02 07:11:47;;;;;;;6.82;3.15;;;18.70;99.90;;;;;;5030481;28;20083;-65
2023/07/02 07:14:13;;;;;;;9.13;2.97;;;18.80;99.90;;;;;;5010040;28;20034;-65
2023/07/02 07:16:39;;;;;;;9.85;3.58;;;18.90;99.90;;;;;;5025250;28;20022;-66
2023/07/02 07:19:05;;;;;;;11.63;4.10;;;19.00;99.90;;;;;;5011243;28;20045;-65
2023/07/02 07:21:31;;;;;;;12.48;4.22;;;19.00;99.90;;;;;;5012560;28;20029;-66
2023/07/02 07:23:57;;;;;;;9.25;3.30;;;18.90;99.90;;;;;;5034749;28;20038;-69
2023/07/02 07:26:23;;;;;;;7.75;3.03;;;19.10;99.90;;;;;;5029381;28;20073;-70
2023/07/02 07:28:49;;;;;;;9.35;2.85;;;19.10;99.90;;;;;;5030348;28;20104;-70
2023/07/02 07:31:15;;;;;;;10.80;3.97;;;19.20;99.90;;;;;;5030504;28;20025;-71
2023/07/02 07:33:41;;;;;;;12.02;4.55;;;19.40;99.90;;;;;;5012675;28;20036;-69
2023/07/02 07:36:06;;;;;;;8.15;3.67;;;19.30;99.90;;;;;;5009602;28;20060;-69
2023/07/02 07:38:32;;;;;;;10.40;3.85;;;19.40;99.90;;;;;;5012407;28;20033;-68
2023/07/02 07:40:58;;;;;;;12.13;4.47;;;19.50;99.90;;;;;;5012762;28;20033;-68
2023/07/02 07:43:23;;;;;;;9.73;3.88;;;19.50;99.90;;;;;;5030170;28;20492;-73
2023/07/02 07:45:49;;;;;;;10.52;4.15;;;19.60;99.90;;;;;;5030646;28;20040;-69
2023/07/02 07:48:15;;;;;;;14.30;4.32;;;19.60;99.90;;;;;;5012559;28;20358;-64
2023/07/02 07:50:41;;;;;;;13.93;4.88;;;19.70;99.90;;;;;;5029740;28;20021;-66
2023/07/02 07:53:06;;;;;;;10.90;4.22;;;19.80;99.90;;;;;;5013006;28;20495;-67
2023/07/02 07:55:32;;;;;;;7.90;4.03;;;19.90;99.10;;;;;;5029906;28;20052;-65
2023/07/02 07:57:58;;;;;;;14.95;4.05;;;19.90;99.60;;;;;;5030600;28;20041;-68
2023/07/02 08:00:25;;;;;;;11.38;3.95;;;19.90;99.80;;;;;;5011786;28;20045;-63
2023/07/02 08:02:52;;;;;;;10.93;4.55;;;19.70;99.80;;;;;;5030320;28;20029;-62
2023/07/02 08:05:18;;;;;;;10.73;4.35;;;19.80;99.60;;;;;;5029744;28;20041;-65
2023/07/02 08:07:43;;;;;;;16.83;4.53;;;19.90;98.40;;;;;;5032529;28;20163;-62
2023/07/02 08:10:10;;;;;;;10.63;4.57;;;19.90;99.10;;;;;;5033275;28;20601;-60
2023/07/02 08:12:36;;;;;;;15.48;4.60;;;20.00;97.50;;;;;;5030406;28;20021;-61
2023/07/02 08:15:02;;;;;;;13.68;4.97;;;20.10;97.80;;;;;;5029813;28;20084;-63
2023/07/02 08:17:30;;;;;;;14.60;4.85;;;20.40;97.90;;;;;;5029987;28;20124;-63
2023/07/02 08:19:57;;;;;;;12.05;4.82;;;20.50;97.10;;;;;;5029297;28;20188;-63
2023/07/02 08:22:23;;;;;;;12.75;4.82;;;20.50;97.60;;;;;;5030415;28;20041;-64
2023/07/02 08:24:51;;;;;;;14.05;5.03;;;20.30;97.50;;;;;;5029782;28;20109;-63
2023/07/02 08:27:19;;;;;;;15.50;4.43;;;20.30;97.40;;;;;;5030044;28;20436;-62
2023/07/02 08:29:47;;;;;;;10.10;5.18;;;20.40;97.30;;;;;;5011488;28;20026;-63
2023/07/02 08:32:13;;;;;;;18.33;5.90;;;20.50;97.10;;;;;;5030214;28;20244;-63
2023/07/02 08:34:39;;;;;;;12.52;4.82;;;20.50;96.50;;;;;;5030058;28;20033;-66
2023/07/02 08:37:05;;;;;;;14.55;4.75;;;20.40;96.20;;;;;;5024066;28;20029;-63
2023/07/02 08:39:31;;;;;;;10.43;4.15;;;20.40;96.50;;;;;;5008411;28;20029;-64
2023/07/02 08:41:57;;;;;;;19.45;5.40;;;20.50;96.50;;;;;;5033832;28;20116;-64
2023/07/02 08:44:23;;;;;;;16.65;4.50;;;20.50;97.10;;;;;;5031733;28;20037;-64
2023/07/02 08:46:50;;;;;;;10.95;4.38;;;20.60;96.80;;;;;;5031801;28;20048;-62
2023/07/02 08:49:17;;;;;;;13.25;4.65;;;20.60;97.10;;;;;;5016189;28;20543;-63
2023/07/02 08:51:46;;;;;;;9.00;3.95;;;20.90;96.70;;;;;;5032696;28;20048;-73
2023/07/02 08:54:12;;;;;;;8.30;4.13;;;20.80;97.00;;;;;;5033518;28;20026;-66
2023/07/02 08:56:41;;;;;;;12.57;4.70;;;20.80;97.20;;;;;;5016343;28;20045;-63
2023/07/02 08:59:08;;;;;;;10.88;4.15;;;20.60;97.00;;;;;;5033239;28;20064;-63
2023/07/02 09:01:52;;;;;;;8.35;3.53;;;20.60;96.20;;;;;;5006450;28;20045;-68
2023/07/02 09:04:24;;;;;;;10.50;3.80;;;20.70;95.50;;;;;;5015681;28;20458;-64
2023/07/02 09:07:06;;;;;;;12.88;5.13;;;21.00;95.10;;;;;;5032945;28;20120;-63
2023/07/02 09:09:33;;;;;;;18.35;5.72;;;21.00;96.10;;;;;;5032192;28;20465;-64
2023/07/02 09:11:59;;;;;;;17.48;5.40;;;20.80;96.70;;;;;;5009128;28;20062;-63
2023/07/02 09:14:30;;;;;;;11.68;4.43;;;20.60;96.50;;;;;;5012226;28;20366;-64
2023/07/02 09:17:06;;;;;;;14.88;4.97;;;20.60;96.20;;;;;;4997361;28;20040;-70
2023/07/02 09:19:33;;;;;;;16.52;5.80;;;20.80;96.00;;;;;;5034612;28;20525;-60
2023/07/02 09:22:03;;;;;;;10.65;4.38;;;21.20;96.30;;;;;;5011554;28;20383;-61
2023/07/02 09:24:31;;;;;;;13.55;5.10;;;21.30;95.60;;;;;;5032185;28;20037;-60
2023/07/02 09:27:00;;;;;;;16.20;5.80;;;21.40;95.70;;;;;;5018086;28;20064;-73
2023/07/02 09:29:31;;;;;;;10.50;4.68;;;21.40;95.50;;;;;;5031286;28;20501;-62
2023/07/02 09:32:03;;;;;;;12.60;4.68;;;21.20;95.90;;;;;;5032463;28;20112;-79
2023/07/02 09:34:37;;;;;;;16.02;5.00;;;21.40;95.10;;;;;;5015609;28;20036;-62
2023/07/02 09:37:05;;;;;;;11.00;5.07;;;21.40;94.80;;;;;;4990331;28;20150;-63
2023/07/02 09:39:33;;;;;;;12.85;5.00;;;21.60;94.50;;;;;;5032346;28;20393;-64
2023/07/02 09:42:02;;;;;;;11.70;4.45;;;21.60;94.20;;;;;;5018018;28;20041;-63
2023/07/02 09:44:32;;;;;;;16.13;5.13;;;21.30;94.70;;;;;;5032586;28;20029;-63
2023/07/02 09:47:09;;;;;;;13.63;4.18;;;21.40;94.70;;;;;;5017594;28;20061;-61
2023/07/02 09:49:43;;;;;;;17.90;5.60;;;21.60;94.40;;;;;;5011144;28;20037;-63
2023/07/02 09:52:10;;;;;;;14.73;5.45;;;21.50;93.80;;;;;;5014495;28;20033;-63
2023/07/02 09:54:37;;;;;;;13.95;4.63;;;21.70;94.10;;;;;;5032430;28;20025;-63
2023/07/02 09:57:05;;;;;;;11.05;4.30;;;21.70;93.30;;;;;;5010906;28;20029;-63
2023/07/02 09:59:31;;;;;;;10.70;4.60;;;21.50;93.90;;;;;;4998065;28;20529;-64
2023/07/02 10:01:58;;;;;;;11.48;4.30;;;21.30;94.00;;;;;;5010623;28;20038;-63
2023/07/02 10:04:24;;;;;;;15.02;5.25;;;21.20;94.40;;;;;;5013186;28;20041;-63
2023/07/02 10:06:57;;;;;;;13.55;5.18;;;21.40;93.70;;;;;;5010553;28;20091;-64
2023/07/02 10:09:44;;;;;;;19.77;5.25;;;21.60;93.40;;;;;;5013091;28;20348;-58
2023/07/02 10:12:28;;;;;;;13.77;6.60;;;21.70;92.50;;;;;;5001051;28;20397;-64
2023/07/02 10:14:56;;;;;;;9.43;4.38;;;21.90;92.10;;;;;;5014055;28;20109;-64
2023/07/02 10:17:30;;;;;;;14.93;5.85;;;22.00;92.30;;;;;;5031991;28;20033;-64
2023/07/02 10:19:59;;;;;;;13.18;5.55;;;22.20;92.00;;;;;;5031308;28;20030;-64
2023/07/02 10:22:25;;;;;;;15.98;5.85;;;22.30;91.50;;;;;;5031808;28;20122;-63
2023/07/02 10:24:59;;;;;;;15.20;5.35;;;22.30;91.80;;;;;;5031273;28;20124;-63
2023/07/02 10:27:42;;;;;;;16.83;6.00;;;22.50;89.60;;;;;;5030483;28;20400;-63
2023/07/02 10:34:04;;;;;;;39.80;19.05;;;22.50;90.40;;;;;;5906192;22;20612;-64
2023/07/02 10:36:29;;;;;;;15.80;6.28;;;22.70;90.50;;;;;;5048263;28;20045;-63
2023/07/02 10:39:05;;;;;;;79.18;43.80;;;22.60;89.50;;;;;;5045355;28;20045;-56
2023/07/02 10:41:30;;;;;;;16.50;7.82;;;22.50;90.00;;;;;;5021695;28;20112;-64
2023/07/02 10:44:09;;;;;;;99.63;50.53;;;22.60;89.50;;;;;;5041661;28;20124;-52
2023/07/02 10:46:46;;;;;;;17.60;6.85;;;22.50;90.10;;;;;;5039436;28;20033;-62
2023/07/02 10:49:13;;;;;;;16.33;5.75;;;22.70;89.40;;;;;;5039581;28;20087;-72
2023/07/02 10:51:39;;;;;;;14.27;5.65;;;22.40;89.10;;;;;;5043552;28;20129;-72
2023/07/02 10:54:05;;;;;;;15.68;5.30;;;22.00;86.90;;;;;;5021719;28;20079;-72
2023/07/02 10:56:32;;;;;;;16.42;5.55;;;22.10;88.40;;;;;;5027411;28;20065;-71
2023/07/02 10:58:58;;;;;;;11.88;4.60;;;22.60;88.10;;;;;;5017750;28;20088;-71
2023/07/02 11:01:31;;;;;;;15.23;5.47;;;23.00;86.00;;;;;;5044306;28;20053;-74
2023/07/02 11:04:04;;;;;;;16.17;6.60;;;23.30;83.20;;;;;;5003450;28;20045;-73
2023/07/02 11:06:33;;;;;;;15.27;5.15;;;22.90;85.30;;;;;;5031945;28;20075;-75
2023/07/02 11:08:59;;;;;;;15.27;5.40;;;22.80;83.60;;;;;;5018855;28;20726;-73
2023/07/02 11:11:26;;;;;;;13.25;5.28;;;22.60;83.80;;;;;;5031451;28;20044;-76
2023/07/02 11:13:53;;;;;;;13.13;5.45;;;22.60;84.80;;;;;;5018917;28;20030;-74
2023/07/02 11:16:27;;;;;;;20.23;6.80;;;22.90;85.30;;;;;;5025747;28;20031;-57
2023/07/02 11:19:08;;;;;;;15.07;5.28;;;23.30;84.30;;;;;;5033197;28;20033;-73
2023/07/02 11:21:34;;;;;;;18.98;6.03;;;23.30;84.30;;;;;;5042178;28;20021;-74
2023/07/02 11:24:10;;;;;;;15.80;5.93;;;23.30;84.20;;;;;;5015856;28;20112;-71
2023/07/02 11:26:38;;;;;;;14.40;5.97;;;23.80;82.00;;;;;;5011170;28;20038;-71
2023/07/02 11:29:03;;;;;;;12.55;5.28;;;23.50;81.50;;;;;;5021557;28;20029;-71
2023/07/02 11:31:29;;;;;;;15.07;5.68;;;23.60;79.30;;;;;;5049237;28;20079;-68
2023/07/02 11:33:55;;;;;;;11.68;5.55;;;23.60;79.90;;;;;;5036075;28;20038;-74
2023/07/02 11:36:24;;;;;;;18.73;6.22;;;24.00;79.50;;;;;;5030931;28;20036;-74
2023/07/02 11:38:51;;;;;;;15.30;5.22;;;24.40;78.30;;;;;;5037005;28;20038;-72
2023/07/02 11:41:19;;;;;;;13.85;5.30;;;24.30;78.70;;;;;;5015901;28;20078;-73
2023/07/02 11:43:44;;;;;;;16.48;5.72;;;24.00;78.80;;;;;;5040465;28;20487;-73
2023/07/02 11:46:10;;;;;;;13.50;5.82;;;23.70;79.40;;;;;;5029293;28;20037;-73
2023/07/02 11:48:36;;;;;;;16.52;6.25;;;23.30;81.50;;;;;;5038739;28;20116;-73
2023/07/02 11:51:02;;;;;;;15.05;5.40;;;23.40;82.80;;;;;;5030051;28;20037;-73
2023/07/02 11:53:27;;;;;;;18.70;5.97;;;23.60;80.30;;;;;;5008982;28;20021;-73
2023/07/02 11:55:53;;;;;;;10.27;4.05;;;23.80;77.00;;;;;;5043136;28;20063;-74
2023/07/02 11:58:19;;;;;;;15.27;4.78;;;23.80;75.40;;;;;;5040157;28;20037;-75
2023/07/02 12:00:44;;;;;;;11.98;4.47;;;23.60;74.80;;;;;;5044185;28;20037;-74
2023/07/02 12:03:10;;;;;;;14.05;5.38;;;23.80;76.30;;;;;;5043087;28;20044;-75
2023/07/02 12:05:36;;;;;;;16.00;4.90;;;23.90;77.10;;;;;;5043458;28;20037;-74
2023/07/02 12:08:02;;;;;;;15.73;5.47;;;23.90;77.50;;;;;;5025539;28;20388;-74
2023/07/02 12:10:28;;;;;;;10.32;5.30;;;24.10;77.80;;;;;;5045070;28;20052;-75
2023/07/02 12:12:54;;;;;;;21.17;6.13;;;24.20;77.80;;;;;;5045415;28;20063;-75
2023/07/02 12:15:20;;;;;;;13.00;5.10;;;24.30;77.40;;;;;;5046014;28;20026;-75
2023/07/02 12:17:46;;;;;;;9.65;4.30;;;24.50;75.70;;;;;;5024188;28;20060;-75
2023/07/02 12:20:11;;;;;;;11.57;5.00;;;24.30;75.00;;;;;;5049893;28;20029;-75
2023/07/02 12:22:37;;;;;;;15.38;5.82;;;24.20;73.30;;;;;;5029332;28;20036;-75
2023/07/02 12:25:05;;;;;;;13.98;5.72;;;24.20;73.90;;;;;;5044216;28;20347;-75
2023/07/02 12:27:30;;;;;;;14.82;5.20;;;24.70;73.70;;;;;;5025202;28;20036;-74
2023/07/02 12:29:56;;;;;;;27.15;5.15;;;25.20;73.90;;;;;;5042915;28;20781;-74
2023/07/02 12:32:22;;;;;;;13.82;4.65;;;25.10;74.10;;;;;;5047826;28;20037;-75
2023/07/02 12:34:48;;;;;;;11.10;4.90;;;25.20;74.30;;;;;;5046533;28;20032;-75
2023/07/02 12:37:17;;;;;;;12.45;5.05;;;25.20;72.20;;;;;;5030747;28;20025;-75
2023/07/02 12:39:43;;;;;;;16.15;6.10;;;24.80;72.60;;;;;;5041869;28;20032;-75
2023/07/02 12:42:09;;;;;;;12.52;4.85;;;25.10;73.30;;;;;;5048949;28;20044;-75
2023/07/02 12:44:34;;;;;;;13.13;4.82;;;25.10;73.30;;;;;;5040019;28;20039;-74
2023/07/02 12:47:00;;;;;;;11.52;5.43;;;25.10;71.80;;;;;;5032165;28;20112;-74
2023/07/02 12:49:26;;;;;;;14.82;5.60;;;25.70;72.30;;;;;;5044392;28;20029;-75